sensor_id;sensor_type;location;lat;lon;timestamp;P1;durP1;ratioP1;P2;durP2;ratioP2
49540;SDS011;35432;43.566;1.398;2023-03-20T00:01:12;4.10;;;0.50;;
49540;SDS011;35432;43.566;1.398;2023-03-20T00:03:49;3.80;;;0.57;;
49540;SDS011;35432;43.566;1.398;2023-03-20T00:06:15;3.72;;;0.60;;
49540;SDS011;35432;43.566;1.398;2023-03-20T00:08:43;4.28;;;0.70;;
49540;SDS011;35432;43.566;1.398;2023-03-20T00:14:07;5.15;;;0.70;;
49540;SDS011;35432;43.566;1.398;2023-03-20T00:16:39;3.10;;;0.50;;
49540;SDS011;35432;43.566;1.398;2023-03-20T00:19:09;3.88;;;0.55;;
49540;SDS011;35432;43.566;1.398;2023-03-20T00:21:41;3.60;;;0.52;;
49540;SDS011;35432;43.566;1.398;2023-03-20T00:24:07;5.30;;;0.50;;
49540;SDS011;35432;43.566;1.398;2023-03-20T00:26:33;4.37;;;0.67;;
49540;SDS011;35432;43.566;1.398;2023-03-20T00:29:00;9.48;;;0.85;;
49540;SDS011;35432;43.566;1.398;2023-03-20T00:31:29;5.93;;;0.50;;
49540;SDS011;35432;43.566;1.398;2023-03-20T00:33:59;4.60;;;0.60;;
49540;SDS011;35432;43.566;1.398;2023-03-20T00:36:27;3.83;;;0.52;;
49540;SDS011;35432;43.566;1.398;2023-03-20T00:38:53;4.53;;;0.60;;
49540;SDS011;35432;43.566;1.398;2023-03-20T00:41:22;5.97;;;0.63;;
49540;SDS011;35432;43.566;1.398;2023-03-20T00:46:32;5.33;;;0.70;;
49540;SDS011;35432;43.566;1.398;2023-03-20T00:49:02;4.35;;;0.52;;
49540;SDS011;35432;43.566;1.398;2023-03-20T00:51:28;4.03;;;0.53;;
49540;SDS011;35432;43.566;1.398;2023-03-20T00:53:53;3.97;;;0.85;;
49540;SDS011;35432;43.566;1.398;2023-03-20T00:58:59;4.75;;;0.50;;
49540;SDS011;35432;43.566;1.398;2023-03-20T01:01:26;6.30;;;0.80;;
49540;SDS011;35432;43.566;1.398;2023-03-20T01:03:52;7.35;;;0.60;;
49540;SDS011;35432;43.566;1.398;2023-03-20T01:06:18;6.03;;;0.40;;
49540;SDS011;35432;43.566;1.398;2023-03-20T01:08:43;2.93;;;0.40;;
49540;SDS011;35432;43.566;1.398;2023-03-20T01:11:09;4.53;;;0.50;;
49540;SDS011;35432;43.566;1.398;2023-03-20T01:13:36;4.65;;;0.40;;
49540;SDS011;35432;43.566;1.398;2023-03-20T01:16:04;3.72;;;0.50;;
49540;SDS011;35432;43.566;1.398;2023-03-20T01:18:30;3.42;;;0.40;;
49540;SDS011;35432;43.566;1.398;2023-03-20T01:20:55;3.47;;;0.50;;
49540;SDS011;35432;43.566;1.398;2023-03-20T01:23:21;6.27;;;0.40;;
49540;SDS011;35432;43.566;1.398;2023-03-20T01:25:50;3.90;;;0.40;;
49540;SDS011;35432;43.566;1.398;2023-03-20T01:30:44;5.60;;;0.50;;
49540;SDS011;35432;43.566;1.398;2023-03-20T01:33:11;4.07;;;0.60;;
49540;SDS011;35432;43.566;1.398;2023-03-20T01:35:38;7.25;;;0.60;;
49540;SDS011;35432;43.566;1.398;2023-03-20T01:38:21;5.45;;;0.93;;
49540;SDS011;35432;43.566;1.398;2023-03-20T01:43:23;5.87;;;0.60;;
49540;SDS011;35432;43.566;1.398;2023-03-20T01:51:23;7.38;;;0.60;;
49540;SDS011;35432;43.566;1.398;2023-03-20T01:56:28;6.07;;;0.70;;
49540;SDS011;35432;43.566;1.398;2023-03-20T01:58:59;4.03;;;0.60;;
49540;SDS011;35432;43.566;1.398;2023-03-20T02:01:30;6.22;;;0.60;;
49540;SDS011;35432;43.566;1.398;2023-03-20T02:03:59;4.82;;;0.73;;
49540;SDS011;35432;43.566;1.398;2023-03-20T02:06:25;4.10;;;0.60;;
49540;SDS011;35432;43.566;1.398;2023-03-20T02:08:51;8.73;;;0.50;;
49540;SDS011;35432;43.566;1.398;2023-03-20T02:11:18;5.65;;;0.70;;
49540;SDS011;35432;43.566;1.398;2023-03-20T02:13:46;5.60;;;0.77;;
49540;SDS011;35432;43.566;1.398;2023-03-20T02:16:14;4.20;;;0.52;;
49540;SDS011;35432;43.566;1.398;2023-03-20T02:18:44;4.28;;;0.57;;
49540;SDS011;35432;43.566;1.398;2023-03-20T02:26:52;3.47;;;0.60;;
49540;SDS011;35432;43.566;1.398;2023-03-20T02:35:13;5.22;;;0.45;;
49540;SDS011;35432;43.566;1.398;2023-03-20T02:48:45;4.20;;;0.60;;
49540;SDS011;35432;43.566;1.398;2023-03-20T02:51:57;4.97;;;0.60;;
49540;SDS011;35432;43.566;1.398;2023-03-20T02:54:38;7.00;;;1.05;;
49540;SDS011;35432;43.566;1.398;2023-03-20T03:00:03;9.00;;;1.42;;
49540;SDS011;35432;43.566;1.398;2023-03-20T03:02:46;6.45;;;0.90;;
49540;SDS011;35432;43.566;1.398;2023-03-20T03:05:24;5.28;;;0.63;;
49540;SDS011;35432;43.566;1.398;2023-03-20T03:07:56;8.80;;;1.50;;
49540;SDS011;35432;43.566;1.398;2023-03-20T03:10:29;4.07;;;0.50;;
49540;SDS011;35432;43.566;1.398;2023-03-20T03:12:59;5.38;;;0.73;;
49540;SDS011;35432;43.566;1.398;2023-03-20T03:18:19;6.05;;;0.70;;
49540;SDS011;35432;43.566;1.398;2023-03-20T03:20:49;4.03;;;0.80;;
49540;SDS011;35432;43.566;1.398;2023-03-20T03:23:30;6.10;;;0.70;;
49540;SDS011;35432;43.566;1.398;2023-03-20T03:26:00;4.38;;;0.60;;
49540;SDS011;35432;43.566;1.398;2023-03-20T03:29:29;4.30;;;0.60;;
49540;SDS011;35432;43.566;1.398;2023-03-20T03:31:28;4.22;;;0.52;;
49540;SDS011;35432;43.566;1.398;2023-03-20T03:33:56;5.43;;;0.65;;
49540;SDS011;35432;43.566;1.398;2023-03-20T03:42:04;4.72;;;0.50;;
49540;SDS011;35432;43.566;1.398;2023-03-20T03:44:34;4.25;;;0.50;;
49540;SDS011;35432;43.566;1.398;2023-03-20T03:47:07;7.15;;;0.60;;
49540;SDS011;35432;43.566;1.398;2023-03-20T03:49:45;4.77;;;0.60;;
49540;SDS011;35432;43.566;1.398;2023-03-20T03:52:16;3.97;;;0.50;;
49540;SDS011;35432;43.566;1.398;2023-03-20T03:54:50;6.95;;;0.60;;
49540;SDS011;35432;43.566;1.398;2023-03-20T03:57:21;3.13;;;0.60;;
49540;SDS011;35432;43.566;1.398;2023-03-20T03:59:53;8.10;;;0.80;;
49540;SDS011;35432;43.566;1.398;2023-03-20T04:02:20;9.00;;;1.63;;
49540;SDS011;35432;43.566;1.398;2023-03-20T04:04:48;5.40;;;0.60;;
49540;SDS011;35432;43.566;1.398;2023-03-20T04:07:16;3.63;;;0.60;;
49540;SDS011;35432;43.566;1.398;2023-03-20T04:09:41;4.50;;;0.60;;
49540;SDS011;35432;43.566;1.398;2023-03-20T04:14:55;5.07;;;0.77;;
49540;SDS011;35432;43.566;1.398;2023-03-20T04:17:21;5.53;;;0.57;;
49540;SDS011;35432;43.566;1.398;2023-03-20T04:19:46;7.03;;;0.77;;
49540;SDS011;35432;43.566;1.398;2023-03-20T04:22:12;5.50;;;0.87;;
49540;SDS011;35432;43.566;1.398;2023-03-20T04:24:37;6.70;;;0.80;;
49540;SDS011;35432;43.566;1.398;2023-03-20T04:27:02;2.53;;;0.45;;
49540;SDS011;35432;43.566;1.398;2023-03-20T04:29:28;4.17;;;1.00;;
49540;SDS011;35432;43.566;1.398;2023-03-20T04:31:53;8.80;;;1.30;;
49540;SDS011;35432;43.566;1.398;2023-03-20T04:34:21;6.97;;;0.93;;
49540;SDS011;35432;43.566;1.398;2023-03-20T04:36:47;4.22;;;0.70;;
49540;SDS011;35432;43.566;1.398;2023-03-20T04:39:12;4.60;;;0.90;;
49540;SDS011;35432;43.566;1.398;2023-03-20T04:41:38;5.77;;;0.80;;
49540;SDS011;35432;43.566;1.398;2023-03-20T04:44:03;4.63;;;0.60;;
49540;SDS011;35432;43.566;1.398;2023-03-20T04:46:29;9.57;;;0.90;;
49540;SDS011;35432;43.566;1.398;2023-03-20T04:48:54;4.70;;;0.53;;
49540;SDS011;35432;43.566;1.398;2023-03-20T04:51:20;6.93;;;0.70;;
49540;SDS011;35432;43.566;1.398;2023-03-20T04:53:45;6.30;;;0.73;;
49540;SDS011;35432;43.566;1.398;2023-03-20T04:56:11;4.22;;;0.60;;
49540;SDS011;35432;43.566;1.398;2023-03-20T04:58:37;5.13;;;0.80;;
49540;SDS011;35432;43.566;1.398;2023-03-20T05:01:03;7.03;;;0.70;;
49540;SDS011;35432;43.566;1.398;2023-03-20T05:03:28;8.37;;;0.93;;
49540;SDS011;35432;43.566;1.398;2023-03-20T05:05:53;5.40;;;0.60;;
49540;SDS011;35432;43.566;1.398;2023-03-20T05:08:19;7.03;;;1.10;;
49540;SDS011;35432;43.566;1.398;2023-03-20T05:10:44;5.05;;;0.90;;
49540;SDS011;35432;43.566;1.398;2023-03-20T05:13:10;10.23;;;1.00;;
49540;SDS011;35432;43.566;1.398;2023-03-20T05:15:36;6.83;;;1.33;;
49540;SDS011;35432;43.566;1.398;2023-03-20T05:18:01;6.50;;;1.48;;
49540;SDS011;35432;43.566;1.398;2023-03-20T05:20:27;10.67;;;3.33;;
49540;SDS011;35432;43.566;1.398;2023-03-20T05:22:52;9.13;;;2.50;;
49540;SDS011;35432;43.566;1.398;2023-03-20T05:25:18;7.53;;;2.10;;
49540;SDS011;35432;43.566;1.398;2023-03-20T05:27:44;9.90;;;3.13;;
49540;SDS011;35432;43.566;1.398;2023-03-20T05:30:10;5.78;;;1.52;;
49540;SDS011;35432;43.566;1.398;2023-03-20T05:32:36;4.57;;;0.90;;
49540;SDS011;35432;43.566;1.398;2023-03-20T05:35:03;6.22;;;0.70;;
49540;SDS011;35432;43.566;1.398;2023-03-20T05:37:28;6.05;;;1.02;;
49540;SDS011;35432;43.566;1.398;2023-03-20T05:39:54;3.60;;;0.70;;
49540;SDS011;35432;43.566;1.398;2023-03-20T05:42:19;5.17;;;0.93;;
49540;SDS011;35432;43.566;1.398;2023-03-20T05:44:45;4.07;;;0.60;;
49540;SDS011;35432;43.566;1.398;2023-03-20T05:47:10;6.37;;;0.73;;
49540;SDS011;35432;43.566;1.398;2023-03-20T05:49:36;4.73;;;0.80;;
49540;SDS011;35432;43.566;1.398;2023-03-20T05:52:01;6.87;;;0.77;;
49540;SDS011;35432;43.566;1.398;2023-03-20T05:54:26;4.23;;;0.70;;
49540;SDS011;35432;43.566;1.398;2023-03-20T05:56:52;6.10;;;0.60;;
49540;SDS011;35432;43.566;1.398;2023-03-20T05:59:17;6.33;;;0.80;;
49540;SDS011;35432;43.566;1.398;2023-03-20T06:01:42;5.50;;;1.00;;
49540;SDS011;35432;43.566;1.398;2023-03-20T06:04:08;7.87;;;0.80;;
49540;SDS011;35432;43.566;1.398;2023-03-20T06:06:33;4.97;;;0.63;;
49540;SDS011;35432;43.566;1.398;2023-03-20T06:09:02;3.93;;;0.80;;
49540;SDS011;35432;43.566;1.398;2023-03-20T06:11:28;7.63;;;0.88;;
49540;SDS011;35432;43.566;1.398;2023-03-20T06:13:53;4.40;;;1.33;;
49540;SDS011;35432;43.566;1.398;2023-03-20T06:16:19;4.70;;;0.70;;
49540;SDS011;35432;43.566;1.398;2023-03-20T06:18:45;4.97;;;0.80;;
49540;SDS011;35432;43.566;1.398;2023-03-20T06:21:11;6.63;;;0.93;;
49540;SDS011;35432;43.566;1.398;2023-03-20T06:23:37;5.00;;;0.80;;
49540;SDS011;35432;43.566;1.398;2023-03-20T06:26:02;6.13;;;1.00;;
49540;SDS011;35432;43.566;1.398;2023-03-20T06:28:28;4.82;;;0.77;;
49540;SDS011;35432;43.566;1.398;2023-03-20T06:30:54;6.13;;;0.90;;
49540;SDS011;35432;43.566;1.398;2023-03-20T06:33:20;5.43;;;0.87;;
49540;SDS011;35432;43.566;1.398;2023-03-20T06:35:46;5.22;;;0.70;;
49540;SDS011;35432;43.566;1.398;2023-03-20T06:38:12;5.20;;;0.98;;
49540;SDS011;35432;43.566;1.398;2023-03-20T06:40:38;6.65;;;1.00;;
49540;SDS011;35432;43.566;1.398;2023-03-20T06:43:04;7.50;;;1.37;;
49540;SDS011;35432;43.566;1.398;2023-03-20T06:45:29;6.10;;;0.80;;
49540;SDS011;35432;43.566;1.398;2023-03-20T06:47:55;7.07;;;1.15;;
49540;SDS011;35432;43.566;1.398;2023-03-20T06:50:21;3.77;;;0.70;;
49540;SDS011;35432;43.566;1.398;2023-03-20T06:52:47;8.90;;;1.02;;
49540;SDS011;35432;43.566;1.398;2023-03-20T06:55:12;5.67;;;1.00;;
49540;SDS011;35432;43.566;1.398;2023-03-20T06:57:38;8.63;;;1.27;;
49540;SDS011;35432;43.566;1.398;2023-03-20T07:00:04;7.97;;;1.15;;
49540;SDS011;35432;43.566;1.398;2023-03-20T07:02:30;8.55;;;1.23;;
49540;SDS011;35432;43.566;1.398;2023-03-20T07:04:56;5.05;;;1.00;;
49540;SDS011;35432;43.566;1.398;2023-03-20T07:07:21;7.10;;;1.27;;
49540;SDS011;35432;43.566;1.398;2023-03-20T07:09:47;9.93;;;1.37;;
49540;SDS011;35432;43.566;1.398;2023-03-20T07:12:13;7.27;;;1.20;;
49540;SDS011;35432;43.566;1.398;2023-03-20T07:14:40;7.20;;;1.00;;
49540;SDS011;35432;43.566;1.398;2023-03-20T07:17:09;4.63;;;0.77;;
49540;SDS011;35432;43.566;1.398;2023-03-20T07:19:35;5.38;;;0.70;;
49540;SDS011;35432;43.566;1.398;2023-03-20T07:22:02;5.43;;;0.80;;
49540;SDS011;35432;43.566;1.398;2023-03-20T07:24:30;4.35;;;0.57;;
49540;SDS011;35432;43.566;1.398;2023-03-20T07:26:56;6.43;;;0.80;;
49540;SDS011;35432;43.566;1.398;2023-03-20T07:29:22;4.00;;;0.50;;
49540;SDS011;35432;43.566;1.398;2023-03-20T07:31:47;8.05;;;0.98;;
49540;SDS011;35432;43.566;1.398;2023-03-20T07:34:13;8.00;;;0.97;;
49540;SDS011;35432;43.566;1.398;2023-03-20T07:36:38;3.63;;;0.70;;
49540;SDS011;35432;43.566;1.398;2023-03-20T07:39:05;4.25;;;0.60;;
49540;SDS011;35432;43.566;1.398;2023-03-20T07:41:32;4.93;;;0.75;;
49540;SDS011;35432;43.566;1.398;2023-03-20T07:43:57;3.47;;;0.67;;
49540;SDS011;35432;43.566;1.398;2023-03-20T07:46:23;6.63;;;0.80;;
49540;SDS011;35432;43.566;1.398;2023-03-20T07:48:49;5.43;;;0.80;;
49540;SDS011;35432;43.566;1.398;2023-03-20T07:51:15;7.38;;;1.02;;
49540;SDS011;35432;43.566;1.398;2023-03-20T07:53:40;4.23;;;0.70;;
49540;SDS011;35432;43.566;1.398;2023-03-20T07:56:06;4.27;;;0.73;;
49540;SDS011;35432;43.566;1.398;2023-03-20T07:58:32;8.63;;;1.08;;
49540;SDS011;35432;43.566;1.398;2023-03-20T08:00:57;3.40;;;0.70;;
49540;SDS011;35432;43.566;1.398;2023-03-20T08:03:23;7.85;;;1.05;;
49540;SDS011;35432;43.566;1.398;2023-03-20T08:05:48;4.53;;;0.80;;
49540;SDS011;35432;43.566;1.398;2023-03-20T08:08:14;3.90;;;0.60;;
49540;SDS011;35432;43.566;1.398;2023-03-20T08:10:39;5.82;;;0.80;;
49540;SDS011;35432;43.566;1.398;2023-03-20T08:13:05;5.70;;;0.80;;
49540;SDS011;35432;43.566;1.398;2023-03-20T08:15:30;6.00;;;0.50;;
49540;SDS011;35432;43.566;1.398;2023-03-20T08:17:56;4.68;;;0.60;;
49540;SDS011;35432;43.566;1.398;2023-03-20T08:20:22;4.43;;;0.70;;
49540;SDS011;35432;43.566;1.398;2023-03-20T08:22:48;5.30;;;0.52;;
49540;SDS011;35432;43.566;1.398;2023-03-20T08:25:14;5.33;;;0.60;;
49540;SDS011;35432;43.566;1.398;2023-03-20T08:27:40;4.32;;;0.50;;
49540;SDS011;35432;43.566;1.398;2023-03-20T08:30:05;4.67;;;0.43;;
49540;SDS011;35432;43.566;1.398;2023-03-20T08:32:32;3.60;;;0.45;;
49540;SDS011;35432;43.566;1.398;2023-03-20T08:34:58;3.40;;;0.40;;
49540;SDS011;35432;43.566;1.398;2023-03-20T08:37:23;2.50;;;0.37;;
49540;SDS011;35432;43.566;1.398;2023-03-20T08:39:49;5.15;;;0.50;;
49540;SDS011;35432;43.566;1.398;2023-03-20T08:42:14;5.90;;;0.80;;
49540;SDS011;35432;43.566;1.398;2023-03-20T08:44:40;1.77;;;0.30;;
49540;SDS011;35432;43.566;1.398;2023-03-20T08:47:05;2.70;;;0.38;;
49540;SDS011;35432;43.566;1.398;2023-03-20T08:49:32;2.73;;;0.20;;
49540;SDS011;35432;43.566;1.398;2023-03-20T08:51:58;3.65;;;0.30;;
49540;SDS011;35432;43.566;1.398;2023-03-20T08:54:24;3.97;;;0.30;;
49540;SDS011;35432;43.566;1.398;2023-03-20T08:56:50;2.67;;;0.30;;
49540;SDS011;35432;43.566;1.398;2023-03-20T08:59:15;2.50;;;0.35;;
49540;SDS011;35432;43.566;1.398;2023-03-20T09:01:41;2.27;;;0.40;;
49540;SDS011;35432;43.566;1.398;2023-03-20T09:04:06;3.47;;;0.50;;
49540;SDS011;35432;43.566;1.398;2023-03-20T09:06:34;2.43;;;0.37;;
49540;SDS011;35432;43.566;1.398;2023-03-20T09:09:00;2.70;;;0.30;;
49540;SDS011;35432;43.566;1.398;2023-03-20T09:11:26;3.83;;;0.30;;
49540;SDS011;35432;43.566;1.398;2023-03-20T09:13:51;3.25;;;0.40;;
49540;SDS011;35432;43.566;1.398;2023-03-20T09:16:16;2.93;;;0.40;;
49540;SDS011;35432;43.566;1.398;2023-03-20T09:18:42;3.37;;;0.30;;
49540;SDS011;35432;43.566;1.398;2023-03-20T09:21:07;2.83;;;0.40;;
49540;SDS011;35432;43.566;1.398;2023-03-20T09:23:33;4.30;;;0.40;;
49540;SDS011;35432;43.566;1.398;2023-03-20T09:25:58;2.65;;;0.40;;
49540;SDS011;35432;43.566;1.398;2023-03-20T09:28:24;2.20;;;0.30;;
49540;SDS011;35432;43.566;1.398;2023-03-20T09:30:53;3.15;;;0.40;;
49540;SDS011;35432;43.566;1.398;2023-03-20T09:33:20;3.50;;;0.43;;
49540;SDS011;35432;43.566;1.398;2023-03-20T09:35:46;2.40;;;0.40;;
49540;SDS011;35432;43.566;1.398;2023-03-20T09:38:11;2.50;;;0.50;;
49540;SDS011;35432;43.566;1.398;2023-03-20T09:40:55;4.13;;;0.50;;
49540;SDS011;35432;43.566;1.398;2023-03-20T09:54:46;3.95;;;0.50;;
49540;SDS011;35432;43.566;1.398;2023-03-20T09:57:16;3.05;;;0.40;;
49540;SDS011;35432;43.566;1.398;2023-03-20T09:59:47;3.80;;;0.40;;
49540;SDS011;35432;43.566;1.398;2023-03-20T10:02:13;2.30;;;0.40;;
49540;SDS011;35432;43.566;1.398;2023-03-20T10:04:48;3.93;;;0.50;;
49540;SDS011;35432;43.566;1.398;2023-03-20T10:07:18;5.18;;;1.20;;
49540;SDS011;35432;43.566;1.398;2023-03-20T10:09:44;3.70;;;0.40;;
49540;SDS011;35432;43.566;1.398;2023-03-20T10:20:43;1.90;;;0.30;;
49540;SDS011;35432;43.566;1.398;2023-03-20T10:23:41;3.10;;;0.50;;
49540;SDS011;35432;43.566;1.398;2023-03-20T10:26:26;3.22;;;0.40;;
49540;SDS011;35432;43.566;1.398;2023-03-20T10:37:26;4.20;;;0.40;;
49540;SDS011;35432;43.566;1.398;2023-03-20T10:40:29;3.40;;;0.50;;
49540;SDS011;35432;43.566;1.398;2023-03-20T10:43:30;5.22;;;0.63;;
49540;SDS011;35432;43.566;1.398;2023-03-20T10:48:32;2.88;;;0.50;;
49540;SDS011;35432;43.566;1.398;2023-03-20T10:51:02;3.10;;;0.50;;
49540;SDS011;35432;43.566;1.398;2023-03-20T10:56:06;2.58;;;0.43;;
49540;SDS011;35432;43.566;1.398;2023-03-20T10:58:39;2.92;;;0.50;;
49540;SDS011;35432;43.566;1.398;2023-03-20T11:01:08;4.90;;;0.45;;
49540;SDS011;35432;43.566;1.398;2023-03-20T11:03:34;3.87;;;0.50;;
49540;SDS011;35432;43.566;1.398;2023-03-20T11:08:45;3.60;;;0.40;;
49540;SDS011;35432;43.566;1.398;2023-03-20T11:11:13;3.40;;;0.50;;
49540;SDS011;35432;43.566;1.398;2023-03-20T11:13:46;3.97;;;0.50;;
49540;SDS011;35432;43.566;1.398;2023-03-20T11:18:45;2.97;;;0.50;;
49540;SDS011;35432;43.566;1.398;2023-03-20T11:23:55;3.20;;;0.50;;
49540;SDS011;35432;43.566;1.398;2023-03-20T11:28:58;2.57;;;0.60;;
49540;SDS011;35432;43.566;1.398;2023-03-20T11:31:28;4.13;;;0.70;;
49540;SDS011;35432;43.566;1.398;2023-03-20T11:34:00;4.20;;;0.52;;
49540;SDS011;35432;43.566;1.398;2023-03-20T11:36:35;4.63;;;0.63;;
49540;SDS011;35432;43.566;1.398;2023-03-20T11:39:05;2.75;;;0.57;;
49540;SDS011;35432;43.566;1.398;2023-03-20T11:41:40;6.30;;;0.67;;
49540;SDS011;35432;43.566;1.398;2023-03-20T11:46:54;4.15;;;0.60;;
49540;SDS011;35432;43.566;1.398;2023-03-20T11:49:30;5.70;;;0.50;;
49540;SDS011;35432;43.566;1.398;2023-03-20T11:52:10;3.92;;;0.60;;
49540;SDS011;35432;43.566;1.398;2023-03-20T11:54:38;2.50;;;0.40;;
49540;SDS011;35432;43.566;1.398;2023-03-20T11:57:25;3.80;;;0.50;;
49540;SDS011;35432;43.566;1.398;2023-03-20T12:00:01;3.03;;;0.60;;
49540;SDS011;35432;43.566;1.398;2023-03-20T12:02:30;5.78;;;1.08;;
49540;SDS011;35432;43.566;1.398;2023-03-20T12:04:58;4.13;;;0.70;;
49540;SDS011;35432;43.566;1.398;2023-03-20T12:07:26;2.90;;;0.50;;
49540;SDS011;35432;43.566;1.398;2023-03-20T12:09:58;4.30;;;0.60;;
49540;SDS011;35432;43.566;1.398;2023-03-20T12:17:28;5.00;;;0.67;;
49540;SDS011;35432;43.566;1.398;2023-03-20T12:19:56;4.10;;;0.60;;
49540;SDS011;35432;43.566;1.398;2023-03-20T12:22:33;3.63;;;0.50;;
49540;SDS011;35432;43.566;1.398;2023-03-20T12:25:17;5.10;;;0.65;;
49540;SDS011;35432;43.566;1.398;2023-03-20T12:27:48;4.85;;;0.70;;
49540;SDS011;35432;43.566;1.398;2023-03-20T12:33:22;3.33;;;0.57;;
49540;SDS011;35432;43.566;1.398;2023-03-20T12:35:57;5.37;;;0.77;;
49540;SDS011;35432;43.566;1.398;2023-03-20T12:38:26;3.35;;;0.55;;
49540;SDS011;35432;43.566;1.398;2023-03-20T12:40:54;4.43;;;0.70;;
49540;SDS011;35432;43.566;1.398;2023-03-20T12:43:41;4.55;;;0.60;;
49540;SDS011;35432;43.566;1.398;2023-03-20T12:46:50;3.50;;;0.80;;
49540;SDS011;35432;43.566;1.398;2023-03-20T12:49:34;5.37;;;0.60;;
49540;SDS011;35432;43.566;1.398;2023-03-20T12:52:11;3.75;;;0.70;;
49540;SDS011;35432;43.566;1.398;2023-03-20T12:57:46;4.55;;;0.90;;
49540;SDS011;35432;43.566;1.398;2023-03-20T13:00:23;3.13;;;0.65;;
49540;SDS011;35432;43.566;1.398;2023-03-20T13:08:57;3.15;;;0.60;;
49540;SDS011;35432;43.566;1.398;2023-03-20T13:19:25;5.20;;;1.10;;
49540;SDS011;35432;43.566;1.398;2023-03-20T13:22:12;3.80;;;0.82;;
49540;SDS011;35432;43.566;1.398;2023-03-20T13:25:03;7.10;;;0.90;;
49540;SDS011;35432;43.566;1.398;2023-03-20T13:30:32;4.93;;;0.70;;
49540;SDS011;35432;43.566;1.398;2023-03-20T13:33:12;6.35;;;0.95;;
49540;SDS011;35432;43.566;1.398;2023-03-20T13:42:03;4.00;;;0.90;;
49540;SDS011;35432;43.566;1.398;2023-03-20T13:44:35;4.00;;;1.00;;
49540;SDS011;35432;43.566;1.398;2023-03-20T13:47:05;4.40;;;0.90;;
49540;SDS011;35432;43.566;1.398;2023-03-20T13:49:37;5.80;;;0.93;;
49540;SDS011;35432;43.566;1.398;2023-03-20T13:57:39;4.30;;;0.90;;
49540;SDS011;35432;43.566;1.398;2023-03-20T14:03:11;4.47;;;0.80;;
49540;SDS011;35432;43.566;1.398;2023-03-20T14:05:40;4.35;;;0.82;;
49540;SDS011;35432;43.566;1.398;2023-03-20T14:11:12;3.73;;;0.83;;
49540;SDS011;35432;43.566;1.398;2023-03-20T14:20:09;4.90;;;0.63;;
49540;SDS011;35432;43.566;1.398;2023-03-20T14:22:43;3.50;;;0.70;;
49540;SDS011;35432;43.566;1.398;2023-03-20T14:25:14;4.97;;;0.80;;
49540;SDS011;35432;43.566;1.398;2023-03-20T14:27:53;6.40;;;1.10;;
49540;SDS011;35432;43.566;1.398;2023-03-20T14:30:42;3.42;;;0.98;;
49540;SDS011;35432;43.566;1.398;2023-03-20T14:35:42;6.95;;;1.05;;
49540;SDS011;35432;43.566;1.398;2023-03-20T14:38:24;4.37;;;0.60;;
49540;SDS011;35432;43.566;1.398;2023-03-20T14:46:26;3.55;;;0.80;;
49540;SDS011;35432;43.566;1.398;2023-03-20T14:48:58;4.07;;;0.80;;
49540;SDS011;35432;43.566;1.398;2023-03-20T14:51:42;3.13;;;0.60;;
49540;SDS011;35432;43.566;1.398;2023-03-20T14:56:46;10.07;;;1.08;;
49540;SDS011;35432;43.566;1.398;2023-03-20T14:59:15;6.53;;;0.90;;
49540;SDS011;35432;43.566;1.398;2023-03-20T15:01:46;5.55;;;1.02;;
49540;SDS011;35432;43.566;1.398;2023-03-20T15:04:20;6.53;;;0.80;;
49540;SDS011;35432;43.566;1.398;2023-03-20T15:07:34;4.20;;;0.80;;
49540;SDS011;35432;43.566;1.398;2023-03-20T15:09:33;5.75;;;0.90;;
49540;SDS011;35432;43.566;1.398;2023-03-20T15:12:01;3.95;;;0.73;;
49540;SDS011;35432;43.566;1.398;2023-03-20T15:14:30;4.25;;;0.93;;
49540;SDS011;35432;43.566;1.398;2023-03-20T15:17:00;3.80;;;0.80;;
49540;SDS011;35432;43.566;1.398;2023-03-20T15:19:27;3.97;;;0.70;;
49540;SDS011;35432;43.566;1.398;2023-03-20T15:21:53;5.07;;;0.63;;
49540;SDS011;35432;43.566;1.398;2023-03-20T15:24:22;5.78;;;0.80;;
49540;SDS011;35432;43.566;1.398;2023-03-20T15:26:53;3.95;;;0.90;;
49540;SDS011;35432;43.566;1.398;2023-03-20T15:29:24;5.30;;;0.77;;
49540;SDS011;35432;43.566;1.398;2023-03-20T15:31:55;5.72;;;1.00;;
49540;SDS011;35432;43.566;1.398;2023-03-20T15:34:27;7.18;;;0.90;;
49540;SDS011;35432;43.566;1.398;2023-03-20T15:36:56;4.63;;;0.80;;
49540;SDS011;35432;43.566;1.398;2023-03-20T15:39:26;3.72;;;0.80;;
49540;SDS011;35432;43.566;1.398;2023-03-20T15:42:03;5.57;;;0.73;;
49540;SDS011;35432;43.566;1.398;2023-03-20T15:44:34;3.13;;;0.65;;
49540;SDS011;35432;43.566;1.398;2023-03-20T15:47:03;3.35;;;0.60;;
49540;SDS011;35432;43.566;1.398;2023-03-20T15:49:35;3.47;;;0.90;;
49540;SDS011;35432;43.566;1.398;2023-03-20T15:52:04;5.72;;;0.70;;
49540;SDS011;35432;43.566;1.398;2023-03-20T15:54:34;3.90;;;0.67;;
49540;SDS011;35432;43.566;1.398;2023-03-20T15:57:01;5.28;;;0.85;;
49540;SDS011;35432;43.566;1.398;2023-03-20T15:59:30;4.60;;;0.93;;
49540;SDS011;35432;43.566;1.398;2023-03-20T16:01:58;3.55;;;0.70;;
49540;SDS011;35432;43.566;1.398;2023-03-20T16:04:25;5.55;;;0.70;;
49540;SDS011;35432;43.566;1.398;2023-03-20T16:09:19;4.07;;;0.60;;
49540;SDS011;35432;43.566;1.398;2023-03-20T16:11:46;6.30;;;0.77;;
49540;SDS011;35432;43.566;1.398;2023-03-20T16:14:18;4.32;;;1.00;;
49540;SDS011;35432;43.566;1.398;2023-03-20T16:16:48;3.15;;;0.60;;
49540;SDS011;35432;43.566;1.398;2023-03-20T16:19:17;3.90;;;0.50;;
49540;SDS011;35432;43.566;1.398;2023-03-20T16:21:44;3.13;;;0.55;;
49540;SDS011;35432;43.566;1.398;2023-03-20T16:24:15;4.23;;;0.50;;
49540;SDS011;35432;43.566;1.398;2023-03-20T16:26:44;4.65;;;0.73;;
49540;SDS011;35432;43.566;1.398;2023-03-20T16:29:14;4.97;;;0.90;;
49540;SDS011;35432;43.566;1.398;2023-03-20T16:31:43;5.50;;;0.73;;
49540;SDS011;35432;43.566;1.398;2023-03-20T16:34:23;6.05;;;0.85;;
49540;SDS011;35432;43.566;1.398;2023-03-20T16:36:55;3.63;;;0.60;;
49540;SDS011;35432;43.566;1.398;2023-03-20T16:39:24;3.45;;;0.60;;
49540;SDS011;35432;43.566;1.398;2023-03-20T16:41:56;4.65;;;0.70;;
49540;SDS011;35432;43.566;1.398;2023-03-20T16:44:28;2.97;;;0.57;;
49540;SDS011;35432;43.566;1.398;2023-03-20T16:51:57;3.22;;;0.55;;
49540;SDS011;35432;43.566;1.398;2023-03-20T16:54:25;5.00;;;0.70;;
49540;SDS011;35432;43.566;1.398;2023-03-20T16:56:54;2.90;;;0.55;;
49540;SDS011;35432;43.566;1.398;2023-03-20T16:59:20;3.90;;;0.90;;
49540;SDS011;35432;43.566;1.398;2023-03-20T17:01:46;4.90;;;0.87;;
49540;SDS011;35432;43.566;1.398;2023-03-20T17:04:20;5.28;;;0.63;;
49540;SDS011;35432;43.566;1.398;2023-03-20T17:06:53;3.50;;;0.50;;
49540;SDS011;35432;43.566;1.398;2023-03-20T17:09:24;3.63;;;0.60;;
49540;SDS011;35432;43.566;1.398;2023-03-20T17:11:56;4.03;;;0.75;;
49540;SDS011;35432;43.566;1.398;2023-03-20T17:14:27;4.20;;;0.80;;
49540;SDS011;35432;43.566;1.398;2023-03-20T17:16:53;3.58;;;0.60;;
49540;SDS011;35432;43.566;1.398;2023-03-20T17:19:20;4.20;;;0.63;;
49540;SDS011;35432;43.566;1.398;2023-03-20T17:21:46;5.73;;;0.57;;
49540;SDS011;35432;43.566;1.398;2023-03-20T17:24:12;5.57;;;0.70;;
49540;SDS011;35432;43.566;1.398;2023-03-20T17:26:39;4.57;;;0.60;;
49540;SDS011;35432;43.566;1.398;2023-03-20T17:29:05;4.70;;;0.73;;
49540;SDS011;35432;43.566;1.398;2023-03-20T17:31:42;3.47;;;0.50;;
49540;SDS011;35432;43.566;1.398;2023-03-20T17:34:09;4.15;;;0.80;;
49540;SDS011;35432;43.566;1.398;2023-03-20T17:36:38;5.00;;;0.70;;
49540;SDS011;35432;43.566;1.398;2023-03-20T17:39:04;4.03;;;0.70;;
49540;SDS011;35432;43.566;1.398;2023-03-20T17:41:29;6.20;;;0.80;;
49540;SDS011;35432;43.566;1.398;2023-03-20T17:43:55;5.77;;;0.70;;
49540;SDS011;35432;43.566;1.398;2023-03-20T17:46:22;3.93;;;0.70;;
49540;SDS011;35432;43.566;1.398;2023-03-20T17:48:51;5.15;;;0.63;;
49540;SDS011;35432;43.566;1.398;2023-03-20T17:51:29;4.90;;;1.30;;
49540;SDS011;35432;43.566;1.398;2023-03-20T17:53:55;4.20;;;1.10;;
49540;SDS011;35432;43.566;1.398;2023-03-20T17:56:22;5.30;;;1.10;;